Stonewall, North Carolina
Current Conditions -  °F | °C
As of 12:54 PM on Friday 21 Nov 2014 (Local Time) from KEWN Reporting Station
Clear Clear  
Wind Chill: 52°   Ceiling: Unl
Heat Index: 52°   Visibility: 10mi
Dew Point: 17°   Wind: 12mph
Humidity: 25%   Direction: 350°N
Pressure: 30.41"   Gusts: NA
Location:  35.14°N, 76.75°W
Report Text: KEWN 211754Z 35010KT 330V030 10SM CLR 11/M08 A3041 RMK AO2 SLP297 T01111083 10111 20044 58004
Loading
Personal Weather Stations






























Interactive Weather Map New forecast layout! Learn more

10-Day Weather Forecast

Advertisements
Track Severe Weather on mobile